Time;durP1;ratioP1;P1;durP2;ratioP2;P2;SDS_P1;SDS_P2;PMS_P1;PMS_P2;Temp;Humidity;BMP_temperature;BMP_pressure;BME280_temperature;BME280_humidity;BME280_pressure;Samples;Min_cycle;Max_cycle;Signal;HPM_P1;HPM_P2
2022/08/25 00:00:52;;;;;;;0.00;0.00;;;27.80;64.40;;;;;;3909198;30;20587;-60
2022/08/25 00:03:34;;;;;;;0.32;0.32;;;27.80;64.30;;;;;;3900210;30;20068;-61
2022/08/25 00:06:20;;;;;;;7.80;0.88;;;27.80;64.30;;;;;;3898446;30;20074;-61
2022/08/25 00:09:01;;;;;;;0.10;0.10;;;27.80;64.40;;;;;;3910452;30;20067;-60
2022/08/25 00:11:44;;;;;;;0.00;0.00;;;27.80;64.30;;;;;;3901160;30;20178;-61
2022/08/25 00:14:29;;;;;;;0.22;0.22;;;27.80;64.40;;;;;;3908317;30;20063;-61
2022/08/25 00:17:11;;;;;;;0.00;0.00;;;27.80;64.30;;;;;;3910174;30;20056;-61
2022/08/25 00:19:53;;;;;;;0.25;0.25;;;27.70;64.30;;;;;;3896091;30;20072;-61
2022/08/25 00:22:36;;;;;;;0.00;0.00;;;27.70;64.20;;;;;;3895995;30;20248;-60
2022/08/25 00:25:18;;;;;;;0.20;0.20;;;27.70;64.20;;;;;;3907921;30;20060;-61
2022/08/25 00:27:59;;;;;;;0.00;0.00;;;27.70;64.20;;;;;;3909895;30;20059;-61
2022/08/25 00:30:45;;;;;;;0.30;0.30;;;27.70;64.20;;;;;;3909931;30;20079;-61
2022/08/25 00:33:29;;;;;;;0.00;0.00;;;27.70;64.20;;;;;;3910326;30;20079;-60
2022/08/25 00:36:11;;;;;;;0.63;0.63;;;27.70;64.20;;;;;;3903419;30;20157;-61
2022/08/25 00:38:54;;;;;;;0.00;0.00;;;27.70;64.30;;;;;;3898442;30;20063;-61
2022/08/25 00:41:37;;;;;;;0.00;0.00;;;27.70;64.20;;;;;;3911436;30;20664;-61
2022/08/25 00:44:20;;;;;;;0.38;0.38;;;27.60;63.90;;;;;;3910215;30;20516;-61
2022/08/25 00:47:03;;;;;;;0.00;0.00;;;27.60;64.00;;;;;;3898551;30;20161;-61
2022/08/25 00:49:54;;;;;;;0.00;0.00;;;27.60;63.90;;;;;;3910502;30;20056;-61
2022/08/25 00:52:41;;;;;;;0.00;0.00;;;27.60;63.80;;;;;;3909985;30;20058;-62
2022/08/25 00:55:28;;;;;;;0.10;0.10;;;27.60;63.80;;;;;;3891762;30;20075;-61
2022/08/25 00:58:13;;;;;;;0.10;0.10;;;27.60;63.90;;;;;;3900093;30;20060;-61
2022/08/25 01:00:59;;;;;;;0.20;0.20;;;27.60;64.00;;;;;;3900278;30;20067;-62
2022/08/25 01:03:44;;;;;;;0.20;0.20;;;27.60;64.00;;;;;;3899142;30;20067;-61
2022/08/25 01:06:25;;;;;;;0.22;0.22;;;27.60;64.00;;;;;;3909080;30;20063;-62
2022/08/25 01:09:08;;;;;;;0.00;0.00;;;27.50;63.70;;;;;;3899034;30;20233;-61
2022/08/25 01:11:51;;;;;;;0.20;0.20;;;27.50;63.90;;;;;;3896138;30;20592;-61
2022/08/25 01:14:37;;;;;;;8.38;1.23;;;27.50;64.00;;;;;;3884299;30;20068;-61
2022/08/25 01:17:19;;;;;;;0.22;0.22;;;27.50;63.90;;;;;;3894692;30;20073;-61
2022/08/25 01:20:02;;;;;;;0.00;0.00;;;27.50;64.00;;;;;;3883187;30;20556;-61
2022/08/25 01:22:44;;;;;;;0.10;0.10;;;27.50;64.00;;;;;;3898560;30;20063;-61
2022/08/25 01:25:36;;;;;;;0.00;0.00;;;27.50;63.90;;;;;;3883987;30;20056;-61
2022/08/25 01:28:21;;;;;;;0.17;0.17;;;27.40;63.80;;;;;;3907308;30;20264;-61
2022/08/25 01:31:03;;;;;;;0.00;0.00;;;27.40;63.70;;;;;;3913618;30;20087;-61
2022/08/25 01:33:47;;;;;;;0.47;0.47;;;27.40;63.70;;;;;;3888818;30;20061;-61
2022/08/25 01:36:30;;;;;;;0.20;0.20;;;27.40;63.80;;;;;;3895855;30;20084;-61
2022/08/25 01:39:14;;;;;;;0.10;0.10;;;27.40;63.50;;;;;;3899016;30;20158;-61
2022/08/25 01:42:19;;;;;;;0.20;0.20;;;27.40;63.40;;;;;;3886927;30;20064;-60
2022/08/25 01:45:01;;;;;;;0.03;0.03;;;27.40;63.40;;;;;;3906851;30;20192;-59
2022/08/25 01:47:42;;;;;;;0.03;0.03;;;27.40;63.00;;;;;;3896843;30;20056;-60
2022/08/25 01:50:25;;;;;;;0.45;0.45;;;27.30;62.80;;;;;;3896963;30;20524;-60
2022/08/25 01:53:14;;;;;;;0.00;0.00;;;27.30;62.50;;;;;;3902123;30;20067;-60
2022/08/25 01:56:01;;;;;;;0.00;0.00;;;27.30;62.90;;;;;;3912005;30;20567;-62
2022/08/25 01:58:46;;;;;;;0.20;0.20;;;27.30;63.10;;;;;;3910818;30;20125;-61
2022/08/25 02:01:29;;;;;;;0.15;0.15;;;27.30;62.50;;;;;;3912436;30;20836;-61
2022/08/25 02:04:11;;;;;;;0.60;0.60;;;27.30;62.50;;;;;;3893168;30;20063;-61
2022/08/25 02:06:52;;;;;;;1.08;0.55;;;27.20;62.90;;;;;;3912632;30;20064;-60
2022/08/25 02:09:37;;;;;;;0.52;0.45;;;27.20;62.90;;;;;;3912003;30;20060;-61
2022/08/25 02:12:20;;;;;;;1.58;1.48;;;27.20;63.10;;;;;;3900113;30;20075;-61
2022/08/25 02:15:01;;;;;;;0.20;0.20;;;27.20;63.10;;;;;;3898046;30;20130;-60
2022/08/25 02:17:43;;;;;;;0.40;0.40;;;27.10;63.20;;;;;;3887146;30;20525;-63
2022/08/25 02:20:25;;;;;;;0.00;0.00;;;27.20;64.20;;;;;;3898133;30;20092;-61
2022/08/25 02:23:07;;;;;;;0.00;0.00;;;27.20;63.10;;;;;;3912142;30;20059;-61
2022/08/25 02:25:48;;;;;;;0.00;0.00;;;27.10;63.10;;;;;;3887519;30;20064;-62
2022/08/25 02:28:31;;;;;;;0.28;0.28;;;27.10;63.20;;;;;;3897141;30;20083;-61
2022/08/25 02:31:14;;;;;;;0.00;0.00;;;27.10;63.30;;;;;;3895543;30;20059;-61
2022/08/25 02:33:56;;;;;;;0.00;0.00;;;27.10;63.10;;;;;;3912181;30;20064;-62
2022/08/25 02:36:47;;;;;;;0.00;0.00;;;27.10;63.20;;;;;;3899319;30;20067;-61
2022/08/25 02:39:29;;;;;;;0.00;0.00;;;27.10;63.20;;;;;;3910856;30;20523;-61
2022/08/25 02:42:10;;;;;;;0.10;0.10;;;27.10;64.00;;;;;;3900091;30;20063;-61
2022/08/25 02:44:54;;;;;;;0.00;0.00;;;27.10;63.00;;;;;;3886708;30;20056;-61
2022/08/25 02:47:36;;;;;;;0.22;0.15;;;27.10;63.10;;;;;;3888035;30;20072;-60
2022/08/25 02:50:19;;;;;;;0.00;0.00;;;27.10;63.10;;;;;;3912036;30;20071;-60
2022/08/25 02:53:01;;;;;;;0.00;0.00;;;27.10;63.10;;;;;;3911359;30;20060;-60
2022/08/25 02:55:42;;;;;;;0.17;0.17;;;27.10;63.90;;;;;;3909854;30;20071;-60
2022/08/25 02:58:24;;;;;;;0.47;0.38;;;27.00;62.90;;;;;;3910895;30;20063;-61
2022/08/25 03:01:10;;;;;;;0.13;0.13;;;27.00;62.90;;;;;;3910775;30;20068;-61
2022/08/25 03:03:52;;;;;;;0.15;0.15;;;27.00;62.80;;;;;;3910998;30;20135;-61
2022/08/25 03:06:34;;;;;;;0.00;0.00;;;27.00;62.80;;;;;;3911250;30;20421;-60
2022/08/25 03:09:16;;;;;;;0.28;0.28;;;27.00;62.70;;;;;;3910290;30;20635;-60
2022/08/25 03:11:58;;;;;;;0.08;0.08;;;27.00;62.60;;;;;;3901406;30;20128;-60
2022/08/25 03:14:40;;;;;;;0.10;0.10;;;27.00;62.60;;;;;;3911399;30;20424;-68
2022/08/25 03:17:24;;;;;;;0.43;0.43;;;27.00;62.50;;;;;;3911752;30;20519;-70
2022/08/25 03:20:07;;;;;;;0.03;0.03;;;27.00;62.60;;;;;;3910257;30;20059;-67
2022/08/25 03:22:49;;;;;;;0.00;0.00;;;27.00;62.70;;;;;;3911617;30;20064;-67
2022/08/25 03:28:31;;;;;;;0.03;0.03;;;26.90;62.50;;;;;;3910002;30;20064;-67
2022/08/25 03:31:13;;;;;;;0.00;0.00;;;26.90;62.50;;;;;;3891202;30;20175;-67
2022/08/25 03:33:57;;;;;;;0.00;0.00;;;26.90;62.40;;;;;;3910111;30;20146;-67
2022/08/25 03:36:39;;;;;;;0.08;0.08;;;26.90;62.50;;;;;;3900081;30;20102;-68
2022/08/25 03:39:23;;;;;;;0.00;0.00;;;26.90;62.50;;;;;;3910546;30;20055;-68
2022/08/25 03:42:05;;;;;;;0.43;0.43;;;26.90;62.40;;;;;;3910139;30;20623;-68
2022/08/25 03:44:48;;;;;;;0.00;0.00;;;26.90;62.50;;;;;;3911906;30;20055;-68
2022/08/25 03:47:31;;;;;;;0.20;0.20;;;26.80;62.40;;;;;;3910810;30;20134;-69
2022/08/25 03:50:16;;;;;;;1.20;0.40;;;26.90;62.40;;;;;;3910845;30;20496;-67
2022/08/25 03:53:01;;;;;;;3.42;0.70;;;26.80;62.50;;;;;;3899841;30;20059;-69
2022/08/25 03:55:43;;;;;;;0.00;0.00;;;26.80;62.40;;;;;;3910332;30;20433;-67
2022/08/25 03:58:26;;;;;;;0.00;0.00;;;26.80;62.40;;;;;;3911440;30;20516;-68
2022/08/25 04:01:10;;;;;;;0.00;0.00;;;26.80;62.40;;;;;;3911676;30;20121;-68
2022/08/25 04:03:52;;;;;;;0.10;0.10;;;26.80;62.30;;;;;;3909821;30;20190;-70
2022/08/25 04:06:35;;;;;;;0.00;0.00;;;26.80;62.30;;;;;;3900690;30;20068;-67
2022/08/25 04:09:17;;;;;;;0.30;0.30;;;26.80;62.30;;;;;;3910121;30;20093;-66
2022/08/25 04:11:59;;;;;;;0.32;0.32;;;26.80;62.20;;;;;;3896123;30;20060;-66
2022/08/25 04:14:41;;;;;;;0.10;0.10;;;26.80;62.30;;;;;;3897124;30;20433;-67
2022/08/25 04:17:22;;;;;;;0.00;0.00;;;26.80;62.30;;;;;;3893920;30;20056;-66
2022/08/25 04:20:05;;;;;;;0.80;0.38;;;26.80;62.40;;;;;;3895997;30;20139;-66
2022/08/25 04:22:48;;;;;;;0.20;0.20;;;26.80;62.50;;;;;;3901979;30;20190;-68
2022/08/25 04:25:30;;;;;;;0.00;0.00;;;26.80;62.40;;;;;;3910016;30;20429;-68
2022/08/25 04:28:11;;;;;;;0.00;0.00;;;26.80;62.40;;;;;;3899865;30;20410;-66
2022/08/25 04:30:53;;;;;;;0.00;0.00;;;26.80;62.40;;;;;;3900091;30;20138;-66
2022/08/25 04:33:35;;;;;;;0.00;0.00;;;26.80;63.20;;;;;;3910911;30;20413;-66
2022/08/25 04:36:18;;;;;;;0.00;0.00;;;26.80;62.20;;;;;;3902404;30;20769;-66
2022/08/25 04:39:02;;;;;;;0.10;0.10;;;26.80;62.30;;;;;;3908339;30;20143;-66
2022/08/25 04:41:43;;;;;;;0.00;0.00;;;26.70;62.20;;;;;;3908753;30;20059;-66
2022/08/25 04:44:29;;;;;;;0.00;0.00;;;26.70;62.20;;;;;;3898365;30;20059;-67
2022/08/25 04:47:11;;;;;;;0.08;0.08;;;26.70;62.20;;;;;;3910487;30;20114;-66
2022/08/25 04:49:52;;;;;;;0.10;0.10;;;26.70;62.10;;;;;;3909730;30;20390;-68
2022/08/25 04:52:34;;;;;;;0.45;0.38;;;26.70;62.20;;;;;;3899338;30;20064;-66
2022/08/25 04:55:17;;;;;;;0.00;0.00;;;26.70;62.20;;;;;;3909152;30;20191;-66
2022/08/25 04:57:58;;;;;;;0.00;0.00;;;26.70;62.10;;;;;;3908815;30;20517;-66
2022/08/25 05:00:41;;;;;;;0.00;0.00;;;26.70;62.10;;;;;;3902690;30;20074;-66
2022/08/25 05:03:27;;;;;;;0.00;0.00;;;26.70;62.10;;;;;;3909155;30;20082;-67
2022/08/25 05:06:09;;;;;;;0.00;0.00;;;26.70;62.10;;;;;;3909545;30;20056;-66
2022/08/25 05:08:56;;;;;;;0.00;0.00;;;26.70;62.10;;;;;;3900220;30;20309;-67
2022/08/25 05:11:39;;;;;;;0.20;0.20;;;26.70;62.10;;;;;;3909413;30;20094;-60
2022/08/25 05:14:24;;;;;;;0.03;0.03;;;26.70;62.10;;;;;;3901333;30;20056;-61
2022/08/25 05:17:07;;;;;;;0.35;0.35;;;26.70;62.00;;;;;;3887162;30;20101;-60
2022/08/25 05:19:48;;;;;;;0.05;0.05;;;26.70;62.20;;;;;;3895773;30;20060;-60
2022/08/25 05:22:30;;;;;;;0.25;0.22;;;26.70;62.10;;;;;;3892230;30;20497;-61
2022/08/25 05:25:13;;;;;;;0.10;0.10;;;26.70;62.00;;;;;;3888209;30;20067;-61
2022/08/25 05:27:56;;;;;;;0.32;0.32;;;26.70;62.00;;;;;;3900520;30;20152;-61
2022/08/25 05:30:39;;;;;;;0.28;0.28;;;26.70;62.00;;;;;;3900781;30;20062;-61
2022/08/25 05:33:21;;;;;;;0.05;0.05;;;26.70;61.80;;;;;;3909082;30;20055;-61
2022/08/25 05:36:02;;;;;;;1.23;1.23;;;26.70;61.80;;;;;;3888841;30;20091;-61
2022/08/25 05:38:44;;;;;;;0.20;0.20;;;26.70;61.50;;;;;;3907354;30;20052;-66
2022/08/25 05:41:28;;;;;;;0.10;0.10;;;26.70;61.50;;;;;;3899471;30;20516;-66
2022/08/25 05:44:11;;;;;;;0.45;0.45;;;26.70;61.40;;;;;;3904077;30;20202;-66
2022/08/25 05:46:53;;;;;;;0.10;0.10;;;26.70;61.40;;;;;;3910933;30;20055;-66
2022/08/25 05:49:35;;;;;;;0.00;0.00;;;26.70;61.20;;;;;;3917625;30;20059;-66
2022/08/25 05:52:17;;;;;;;0.13;0.13;;;26.70;61.20;;;;;;3915693;30;20079;-66
2022/08/25 05:55:00;;;;;;;0.00;0.00;;;26.60;61.20;;;;;;3909217;30;20056;-67
2022/08/25 05:57:42;;;;;;;0.45;0.45;;;26.60;61.10;;;;;;3909253;30;20115;-67
2022/08/25 06:00:25;;;;;;;0.00;0.00;;;26.60;61.10;;;;;;3899722;30;20416;-67
2022/08/25 06:03:06;;;;;;;0.00;0.00;;;26.60;61.10;;;;;;3908821;30;20168;-67
2022/08/25 06:05:48;;;;;;;0.00;0.00;;;26.60;61.10;;;;;;3910755;30;20566;-66
2022/08/25 06:08:32;;;;;;;0.00;0.00;;;26.60;61.10;;;;;;3897765;30;20538;-66
2022/08/25 06:11:15;;;;;;;0.05;0.05;;;26.60;61.10;;;;;;3909595;30;20059;-68
2022/08/25 06:13:56;;;;;;;0.17;0.17;;;26.60;61.10;;;;;;3911212;30;20111;-67
2022/08/25 06:16:39;;;;;;;0.00;0.00;;;26.60;61.10;;;;;;3924777;30;20071;-67
2022/08/25 06:19:23;;;;;;;0.00;0.00;;;26.60;61.20;;;;;;3916601;30;20170;-68
2022/08/25 06:22:04;;;;;;;0.52;0.52;;;26.60;61.10;;;;;;3926948;30;20063;-67
2022/08/25 06:24:46;;;;;;;0.15;0.15;;;26.50;61.10;;;;;;3911466;30;20060;-69
2022/08/25 06:27:27;;;;;;;;;;;26.50;61.00;;;;;;3912739;30;20058;-62
2022/08/25 06:30:10;;;;;;;;;;;26.60;61.10;;;;;;3911278;30;19987;-62
2022/08/25 06:32:53;;;;;;;0.55;0.55;;;26.60;60.90;;;;;;3911536;30;20394;-62
2022/08/25 06:35:35;;;;;;;0.00;0.00;;;26.60;60.70;;;;;;3912320;30;20418;-62
2022/08/25 06:38:17;;;;;;;0.00;0.00;;;26.70;60.70;;;;;;3910993;30;20055;-62
2022/08/25 06:40:58;;;;;;;0.00;0.00;;;26.70;60.50;;;;;;3912354;30;20461;-61
2022/08/25 06:43:40;;;;;;;1.13;0.38;;;26.80;60.40;;;;;;3900408;30;20468;-62
2022/08/25 06:46:29;;;;;;;0.65;0.65;;;26.80;60.30;;;;;;3899731;30;20854;-62
2022/08/25 06:49:17;;;;;;;0.00;0.00;;;26.80;60.10;;;;;;3912843;30;20064;-62
2022/08/25 06:51:59;;;;;;;0.25;0.25;;;26.80;60.00;;;;;;3900403;30;20129;-62
2022/08/25 06:54:41;;;;;;;0.05;0.05;;;26.90;60.00;;;;;;3900613;30;20149;-62
2022/08/25 06:57:22;;;;;;;0.00;0.00;;;26.90;60.10;;;;;;3911256;30;20198;-63
2022/08/25 07:00:05;;;;;;;0.40;0.40;;;26.90;60.20;;;;;;3911561;30;20059;-62
2022/08/25 07:02:47;;;;;;;0.00;0.00;;;27.00;60.30;;;;;;3909775;30;20069;-65
2022/08/25 07:05:30;;;;;;;0.10;0.10;;;27.00;60.40;;;;;;3900621;30;20059;-62
2022/08/25 07:08:24;;;;;;;0.13;0.13;;;27.10;61.00;;;;;;3910448;30;20063;-60
2022/08/25 07:11:06;;;;;;;0.28;0.28;;;27.10;60.70;;;;;;3911513;30;20195;-68
2022/08/25 07:13:48;;;;;;;0.77;0.77;;;27.20;60.50;;;;;;3911248;30;20063;-67
2022/08/25 07:16:31;;;;;;;0.00;0.00;;;27.20;60.20;;;;;;3912147;30;20149;-70
2022/08/25 07:19:13;;;;;;;0.00;0.00;;;27.30;60.10;;;;;;3909826;30;20199;-67
2022/08/25 07:21:56;;;;;;;0.10;0.10;;;27.20;59.90;;;;;;3896755;30;20519;-68
2022/08/25 07:24:39;;;;;;;0.00;0.00;;;27.30;59.80;;;;;;3897347;30;20064;-68
2022/08/25 07:27:22;;;;;;;0.40;0.40;;;27.30;59.70;;;;;;3903233;30;20063;-68
2022/08/25 07:30:06;;;;;;;0.75;0.75;;;27.40;59.70;;;;;;3910686;30;20101;-67
2022/08/25 07:32:47;;;;;;;5.32;1.85;;;27.40;59.60;;;;;;3900268;30;20512;-67
2022/08/25 07:35:31;;;;;;;0.80;0.80;;;27.40;59.60;;;;;;3871723;30;20440;-67
2022/08/25 07:38:18;;;;;;;0.00;0.00;;;27.40;59.60;;;;;;3910439;30;20084;-67
2022/08/25 07:41:04;;;;;;;0.00;0.00;;;27.50;59.70;;;;;;3911034;30;20528;-70
2022/08/25 07:43:46;;;;;;;0.30;0.17;;;27.40;59.50;;;;;;3911779;30;20536;-67
2022/08/25 07:46:28;;;;;;;0.43;0.43;;;27.50;59.50;;;;;;3901125;30;20190;-68
2022/08/25 07:49:09;;;;;;;0.40;0.40;;;27.50;59.50;;;;;;3890105;30;20063;-67
2022/08/25 07:51:56;;;;;;;0.20;0.20;;;27.50;59.50;;;;;;3910131;30;20072;-69
2022/08/25 07:54:47;;;;;;;0.95;0.95;;;27.60;59.50;;;;;;3900641;30;20047;-65
2022/08/25 07:57:28;;;;;;;0.08;0.08;;;27.60;59.40;;;;;;3910843;30;20130;-65
2022/08/25 08:00:10;;;;;;;0.55;0.55;;;27.60;59.50;;;;;;3891232;30;20071;-69
2022/08/25 08:02:52;;;;;;;3.75;1.95;;;27.60;59.40;;;;;;3901018;30;20110;-67
2022/08/25 08:05:35;;;;;;;2.10;0.93;;;27.60;59.30;;;;;;3896795;30;20484;-66
2022/08/25 08:08:16;;;;;;;0.00;0.00;;;27.70;59.30;;;;;;3899265;30;20060;-66
2022/08/25 08:11:00;;;;;;;0.47;0.47;;;27.70;59.20;;;;;;3910365;30;20079;-66
2022/08/25 08:13:46;;;;;;;0.00;0.00;;;27.70;59.30;;;;;;3910946;30;20413;-66
2022/08/25 08:16:29;;;;;;;1.58;1.30;;;27.70;59.10;;;;;;3899285;30;20055;-67
2022/08/25 08:19:10;;;;;;;1.42;1.35;;;27.70;59.10;;;;;;3910407;30;20068;-66
2022/08/25 08:21:51;;;;;;;;;;;27.70;59.10;;;;;;3911589;30;20067;-62
2022/08/25 08:24:37;;;;;;;0.43;0.43;;;27.70;59.10;;;;;;3900706;30;19937;-62
2022/08/25 08:27:27;;;;;;;0.00;0.00;;;27.80;59.10;;;;;;3910978;30;20063;-63
2022/08/25 08:30:12;;;;;;;0.00;0.00;;;27.70;59.10;;;;;;3911215;30;20084;-66
2022/08/25 08:32:53;;;;;;;0.13;0.13;;;27.80;59.00;;;;;;3910305;30;20056;-67
2022/08/25 08:36:00;;;;;;;2.65;0.50;;;27.80;58.90;;;;;;3905578;30;20511;-67
2022/08/25 08:38:46;;;;;;;0.57;0.57;;;27.80;58.80;;;;;;3898248;30;20082;-66
2022/08/25 08:45:06;;;;;;;0.22;0.22;;;27.90;58.90;;;;;;3893385;30;20557;-63
2022/08/25 08:48:01;;;;;;;0.13;0.13;;;27.80;58.80;;;;;;3895905;30;20067;-62
2022/08/25 08:50:52;;;;;;;0.00;0.00;;;27.90;58.70;;;;;;3885788;30;20142;-63
2022/08/25 08:53:45;;;;;;;0.00;0.00;;;27.90;58.70;;;;;;3910894;30;20512;-62
2022/08/25 08:56:30;;;;;;;1.02;1.02;;;27.90;58.70;;;;;;3910707;30;20067;-63
2022/08/25 08:59:17;;;;;;;1.55;0.98;;;28.00;58.70;;;;;;3910944;30;20578;-62
2022/08/25 09:02:02;;;;;;;0.00;0.00;;;28.00;58.50;;;;;;3910460;30;20504;-63
2022/08/25 09:04:49;;;;;;;0.17;0.17;;;28.00;58.30;;;;;;3907870;30;20119;-68
2022/08/25 09:07:36;;;;;;;0.00;0.00;;;28.10;58.40;;;;;;3910298;30;20116;-67
2022/08/25 09:10:19;;;;;;;0.17;0.17;;;28.10;58.20;;;;;;3899525;30;20067;-67
2022/08/25 09:13:12;;;;;;;0.10;0.10;;;28.10;58.40;;;;;;3910403;30;20575;-68
2022/08/25 09:19:15;;;;;;;0.03;0.03;;;28.20;58.00;;;;;;3909025;30;20072;-62
2022/08/25 09:22:06;;;;;;;0.70;0.70;;;28.20;58.00;;;;;;3891348;30;20107;-63
2022/08/25 09:25:15;;;;;;;0.15;0.15;;;28.20;57.90;;;;;;3909782;30;20516;-63
2022/08/25 09:28:08;;;;;;;0.15;0.15;;;28.30;57.90;;;;;;3910146;30;20202;-63
2022/08/25 09:30:57;;;;;;;0.00;0.00;;;28.30;58.20;;;;;;3909293;30;20055;-66
2022/08/25 09:33:39;;;;;;;0.03;0.03;;;28.40;58.50;;;;;;3891227;30;20209;-62
2022/08/25 09:36:22;;;;;;;0.25;0.25;;;28.40;58.10;;;;;;3907543;30;20070;-66
2022/08/25 09:39:05;;;;;;;0.55;0.55;;;28.40;58.50;;;;;;3906890;30;20055;-66
2022/08/25 09:41:49;;;;;;;0.00;0.00;;;28.50;58.80;;;;;;3909472;30;20113;-67
2022/08/25 09:44:33;;;;;;;0.30;0.30;;;28.50;59.50;;;;;;3909238;30;20064;-67
2022/08/25 09:47:21;;;;;;;0.32;0.32;;;28.60;60.80;;;;;;3899039;30;20060;-69
2022/08/25 09:50:05;;;;;;;0.13;0.13;;;28.60;59.90;;;;;;3912221;30;20056;-68
2022/08/25 09:52:48;;;;;;;0.30;0.30;;;28.60;60.10;;;;;;3903232;30;20150;-69
2022/08/25 09:55:34;;;;;;;0.28;0.28;;;28.70;60.40;;;;;;3912998;30;20517;-70
2022/08/25 09:58:21;;;;;;;0.40;0.40;;;28.70;59.90;;;;;;3901053;30;20537;-68
2022/08/25 10:01:08;;;;;;;0.20;0.20;;;28.80;60.20;;;;;;3913425;30;20051;-69
2022/08/25 10:04:01;;;;;;;0.10;0.10;;;28.80;59.60;;;;;;3902602;30;20058;-68
2022/08/25 10:06:45;;;;;;;2.58;0.73;;;28.80;60.20;;;;;;3898671;30;20056;-63
2022/08/25 10:09:34;;;;;;;0.10;0.10;;;28.80;59.70;;;;;;3898056;30;20080;-67
2022/08/25 10:12:19;;;;;;;0.00;0.00;;;28.90;59.80;;;;;;3902046;30;20083;-67
2022/08/25 10:15:17;;;;;;;0.10;0.10;;;28.90;59.80;;;;;;3912345;30;20087;-68
2022/08/25 10:18:20;;;;;;;0.65;0.63;;;29.00;59.20;;;;;;3897971;30;20067;-69
2022/08/25 10:21:05;;;;;;;0.10;0.10;;;29.00;58.50;;;;;;3897347;30;20067;-67
2022/08/25 10:23:51;;;;;;;0.22;0.22;;;29.00;58.50;;;;;;3895796;30;20525;-64
2022/08/25 10:26:52;;;;;;;0.22;0.22;;;29.00;58.20;;;;;;3908985;30;20528;-62
2022/08/25 10:29:48;;;;;;;;;;;29.10;58.10;;;;;;3902111;30;20130;-63
2022/08/25 10:32:39;;;;;;;0.00;0.00;;;29.10;57.40;;;;;;3909471;30;20023;-62
2022/08/25 10:35:26;;;;;;;0.00;0.00;;;29.10;57.60;;;;;;3910454;30;20205;-63
2022/08/25 10:38:18;;;;;;;0.22;0.22;;;29.10;57.30;;;;;;3912172;30;20060;-62
2022/08/25 10:41:12;;;;;;;0.00;0.00;;;29.20;57.00;;;;;;3900852;30;20358;-64
2022/08/25 10:44:02;;;;;;;0.73;0.73;;;29.20;56.50;;;;;;3901580;30;20190;-62
2022/08/25 10:46:50;;;;;;;0.30;0.30;;;29.20;56.70;;;;;;3897237;30;20068;-63
2022/08/25 10:49:35;;;;;;;0.00;0.00;;;29.20;56.80;;;;;;3901319;30;20094;-62
2022/08/25 10:52:23;;;;;;;0.05;0.05;;;29.30;56.80;;;;;;3912595;30;20405;-63
2022/08/25 10:55:17;;;;;;;0.00;0.00;;;29.30;56.60;;;;;;3912755;30;20163;-63
2022/08/25 10:58:09;;;;;;;0.08;0.08;;;29.30;56.60;;;;;;3911755;30;20067;-63
2022/08/25 11:01:02;;;;;;;0.10;0.10;;;29.30;56.20;;;;;;3900953;30;20066;-63
2022/08/25 11:03:51;;;;;;;0.50;0.22;;;29.40;56.10;;;;;;3903733;30;20059;-64
2022/08/25 11:06:45;;;;;;;0.00;0.00;;;29.40;56.00;;;;;;3911503;30;20863;-67
2022/08/25 11:09:34;;;;;;;0.15;0.10;;;29.40;55.90;;;;;;3912240;30;20102;-70
2022/08/25 11:12:21;;;;;;;0.00;0.00;;;29.50;55.90;;;;;;3900614;30;20056;-68
2022/08/25 11:15:10;;;;;;;0.57;0.57;;;29.50;55.60;;;;;;3877394;30;20223;-67
2022/08/25 11:17:56;;;;;;;0.00;0.00;;;29.50;54.80;;;;;;3911911;30;20125;-69
2022/08/25 11:20:43;;;;;;;15.95;1.05;;;29.60;54.90;;;;;;3899338;30;20060;-68
2022/08/25 11:23:29;;;;;;;0.00;0.00;;;29.60;55.00;;;;;;3911217;30;20067;-69
2022/08/25 11:26:19;;;;;;;0.00;0.00;;;29.60;54.90;;;;;;3911875;30;20542;-67
2022/08/25 11:29:07;;;;;;;0.00;0.00;;;29.60;54.60;;;;;;3910817;30;20945;-68
2022/08/25 11:31:58;;;;;;;0.00;0.00;;;29.60;54.60;;;;;;3898647;30;20106;-68
2022/08/25 11:34:43;;;;;;;0.10;0.10;;;29.60;54.40;;;;;;3910232;30;20414;-67
2022/08/25 11:37:28;;;;;;;0.03;0.03;;;29.60;54.10;;;;;;3895688;30;20064;-68
2022/08/25 11:40:45;;;;;;;0.00;0.00;;;29.60;54.20;;;;;;3894592;30;20057;-64
2022/08/25 11:43:53;;;;;;;0.00;0.00;;;29.70;54.20;;;;;;3887873;30;20068;-63
2022/08/25 11:46:50;;;;;;;0.00;0.00;;;29.70;54.10;;;;;;3901629;30;20082;-63
2022/08/25 11:49:55;;;;;;;0.10;0.10;;;29.70;54.00;;;;;;3886367;30;20110;-63
2022/08/25 11:52:52;;;;;;;0.00;0.00;;;29.70;53.80;;;;;;3899177;30;20525;-63
2022/08/25 11:55:48;;;;;;;0.00;0.00;;;29.80;53.50;;;;;;3889237;30;20572;-63
2022/08/25 11:58:47;;;;;;;0.00;0.00;;;29.80;53.40;;;;;;3908793;30;20222;-63
2022/08/25 12:02:01;;;;;;;0.00;0.00;;;29.80;52.80;;;;;;3915632;30;20064;-62
2022/08/25 12:04:43;;;;;;;0.65;0.65;;;29.80;53.10;;;;;;3868900;30;20079;-64
2022/08/25 12:07:30;;;;;;;0.77;0.77;;;29.80;52.70;;;;;;3895324;30;20059;-64
2022/08/25 12:10:20;;;;;;;0.00;0.00;;;29.90;52.80;;;;;;3886600;30;20064;-64
2022/08/25 12:13:25;;;;;;;0.10;0.10;;;29.90;52.90;;;;;;3900785;30;20570;-63
2022/08/25 12:16:06;;;;;;;0.30;0.30;;;29.90;52.70;;;;;;3917560;30;20067;-63
2022/08/25 12:18:47;;;;;;;0.43;0.22;;;29.90;52.00;;;;;;3895584;30;20126;-63
2022/08/25 12:21:33;;;;;;;0.30;0.30;;;29.90;52.20;;;;;;3904530;30;20410;-63
2022/08/25 12:24:36;;;;;;;0.10;0.10;;;29.90;52.30;;;;;;3906495;30;20059;-63
2022/08/25 12:27:27;;;;;;;0.00;0.00;;;30.00;52.10;;;;;;3898441;30;20071;-64
2022/08/25 12:30:16;;;;;;;0.00;0.00;;;30.00;52.10;;;;;;3899145;30;20197;-64
2022/08/25 12:33:07;;;;;;;0.00;0.00;;;30.00;51.30;;;;;;3899729;30;20063;-64
2022/08/25 12:35:56;;;;;;;0.00;0.00;;;30.00;51.40;;;;;;3885816;30;20202;-63
2022/08/25 12:38:43;;;;;;;0.00;0.00;;;30.10;51.40;;;;;;3885905;30;20071;-63
2022/08/25 12:41:30;;;;;;;0.32;0.32;;;30.10;51.10;;;;;;3893926;30;20060;-64
2022/08/25 12:44:33;;;;;;;0.00;0.00;;;30.10;51.30;;;;;;3910557;30;20069;-64
2022/08/25 12:47:30;;;;;;;0.20;0.20;;;30.10;50.80;;;;;;3900118;30;20532;-65
2022/08/25 12:50:36;;;;;;;0.30;0.30;;;30.20;51.00;;;;;;3909665;30;20500;-64
2022/08/25 12:53:30;;;;;;;0.00;0.00;;;30.10;50.70;;;;;;3910200;30;20069;-64
2022/08/25 12:56:31;;;;;;;0.00;0.00;;;30.20;50.50;;;;;;3909095;30;20520;-63
2022/08/25 12:59:17;;;;;;;0.50;0.50;;;30.20;50.30;;;;;;3908830;30;20062;-64
2022/08/25 13:02:22;;;;;;;0.32;0.32;;;30.20;50.00;;;;;;3899175;30;20616;-64
2022/08/25 13:05:36;;;;;;;0.00;0.00;;;30.20;49.80;;;;;;3891607;30;20063;-62
2022/08/25 13:08:46;;;;;;;0.00;0.00;;;30.30;49.20;;;;;;3899582;30;20083;-64
2022/08/25 13:11:37;;;;;;;0.05;0.05;;;30.30;49.50;;;;;;3903968;30;20063;-63
2022/08/25 13:14:26;;;;;;;0.00;0.00;;;30.30;49.50;;;;;;3899328;30;20226;-64
2022/08/25 13:17:09;;;;;;;0.00;0.00;;;30.40;49.30;;;;;;3888211;30;20126;-63
2022/08/25 13:19:51;;;;;;;0.00;0.00;;;30.40;49.30;;;;;;3908421;30;20064;-64
2022/08/25 13:22:33;;;;;;;0.28;0.28;;;30.40;50.00;;;;;;3892305;30;20540;-64
2022/08/25 13:25:23;;;;;;;0.00;0.00;;;30.40;49.30;;;;;;3896397;30;20055;-64
2022/08/25 13:28:06;;;;;;;0.00;0.00;;;30.40;49.40;;;;;;3895337;30;20069;-64
2022/08/25 13:31:01;;;;;;;0.00;0.00;;;30.50;49.00;;;;;;3894391;30;20619;-63
2022/08/25 13:33:51;;;;;;;0.25;0.25;;;30.50;49.20;;;;;;3901542;30;20064;-63
2022/08/25 13:39:39;;;;;;;0.00;0.00;;;30.50;48.90;;;;;;3883948;30;20223;-64
2022/08/25 13:42:36;;;;;;;8.00;1.10;;;30.50;49.00;;;;;;3913376;30;20075;-64
2022/08/25 13:45:22;;;;;;;0.38;0.32;;;30.50;49.00;;;;;;3912425;30;20078;-65
2022/08/25 13:48:04;;;;;;;0.00;0.00;;;30.50;48.80;;;;;;3912618;30;20067;-64
2022/08/25 13:50:46;;;;;;;0.10;0.10;;;30.50;48.60;;;;;;3913586;30;20146;-64
2022/08/25 13:53:30;;;;;;;0.10;0.10;;;30.60;48.60;;;;;;3913150;30;20056;-68
2022/08/25 13:56:14;;;;;;;0.00;0.00;;;30.60;49.40;;;;;;3913172;30;20451;-68
2022/08/25 13:59:02;;;;;;;0.20;0.20;;;30.60;48.00;;;;;;3912981;30;20169;-68
2022/08/25 14:01:47;;;;;;;0.13;0.13;;;30.60;47.50;;;;;;3901955;30;20056;-69
2022/08/25 14:04:32;;;;;;;0.00;0.00;;;30.70;48.20;;;;;;3913443;30;20063;-68
2022/08/25 14:07:25;;;;;;;0.00;0.00;;;30.60;48.10;;;;;;3913386;30;20123;-68
2022/08/25 14:10:09;;;;;;;0.00;0.00;;;30.70;48.00;;;;;;3897962;30;20083;-67
2022/08/25 14:13:09;;;;;;;0.05;0.05;;;30.70;48.10;;;;;;3899433;30;20540;-67
2022/08/25 14:15:50;;;;;;;0.20;0.20;;;30.70;48.30;;;;;;3899284;30;20079;-69
2022/08/25 14:18:32;;;;;;;0.50;0.50;;;30.70;48.10;;;;;;3907919;30;20064;-69
2022/08/25 14:21:14;;;;;;;0.00;0.00;;;30.70;47.30;;;;;;3913351;30;20134;-67
2022/08/25 14:23:56;;;;;;;0.00;0.00;;;30.80;47.40;;;;;;3907313;30;20420;-68
2022/08/25 14:26:37;;;;;;;0.00;0.00;;;30.80;46.90;;;;;;3898497;30;20064;-69
2022/08/25 14:29:18;;;;;;;0.47;0.47;;;30.80;47.20;;;;;;3899071;30;20091;-68
2022/08/25 14:32:02;;;;;;;0.00;0.00;;;30.80;47.70;;;;;;3903025;30;20067;-68
2022/08/25 14:34:47;;;;;;;0.03;0.03;;;30.80;47.90;;;;;;3887904;30;20161;-68
2022/08/25 14:37:28;;;;;;;0.20;0.20;;;30.80;48.00;;;;;;3912708;30;20134;-68